createdAt,value
2022-11-20T00:00:27.735Z,-5.97
2022-11-20T00:04:49.394Z,-6.00
2022-11-20T00:08:51.858Z,-5.93
2022-11-20T00:12:53.514Z,-5.99
2022-11-20T00:16:55.441Z,-6.09
2022-11-20T00:21:12.322Z,-6.17
2022-11-20T00:25:14.381Z,-6.18
2022-11-20T00:29:16.332Z,-6.21
2022-11-20T00:33:18.419Z,-6.23
2022-11-20T00:37:19.998Z,-6.30
2022-11-20T00:41:22.665Z,-6.29
2022-11-20T00:45:24.359Z,-6.18
2022-11-20T00:49:26.265Z,-6.10
2022-11-20T00:53:28.325Z,-5.99
2022-11-20T00:57:30.433Z,-6.02
2022-11-20T01:01:32.209Z,-5.77
2022-11-20T01:05:36.320Z,-5.75
2022-11-20T01:09:38.064Z,-5.69
2022-11-20T01:13:41.866Z,-5.71
2022-11-20T01:17:43.481Z,-5.75
2022-11-20T01:21:47.396Z,-5.74
2022-11-20T01:25:49.009Z,-5.86
2022-11-20T01:29:50.917Z,-5.96
2022-11-20T01:33:55.370Z,-5.95
2022-11-20T01:37:57.251Z,-6.08
2022-11-20T01:42:17.488Z,-6.09
2022-11-20T01:46:20.557Z,-6.18
2022-11-20T01:50:29.785Z,-6.14
2022-11-20T01:54:43.268Z,-6.00
2022-11-20T01:58:51.338Z,-5.86
2022-11-20T02:02:58.639Z,-5.67
2022-11-20T02:07:02.146Z,-5.63
2022-11-20T02:11:04.512Z,-5.52
2022-11-20T02:15:06.573Z,-5.52
2022-11-20T02:19:13.976Z,-5.43
2022-11-20T02:23:27.594Z,-5.41
2022-11-20T02:27:30.033Z,-5.53
2022-11-20T02:31:40.926Z,-5.55
2022-11-20T02:35:46.462Z,-5.60
2022-11-20T02:39:52.337Z,-5.64
2022-11-20T02:43:54.228Z,-5.64
2022-11-20T02:47:55.979Z,-5.69
2022-11-20T02:51:58.237Z,-5.64
2022-11-20T02:55:59.929Z,-5.75
2022-11-20T03:00:02.148Z,-5.92
2022-11-20T03:04:03.934Z,-5.93
2022-11-20T03:08:05.991Z,-5.95
2022-11-20T03:12:08.065Z,-5.98
2022-11-20T03:16:15.781Z,-6.00
2022-11-20T03:20:17.412Z,-6.11
2022-11-20T03:24:19.387Z,-6.11
2022-11-20T03:28:21.044Z,-6.18
2022-11-20T03:32:22.934Z,-6.28
2022-11-20T03:36:25.703Z,-6.19
2022-11-20T03:40:27.611Z,-6.21
2022-11-20T03:44:29.242Z,-6.22
2022-11-20T03:48:31.603Z,-6.22
2022-11-20T03:52:33.258Z,-6.18
2022-11-20T03:56:38.318Z,-6.14
2022-11-20T04:00:40.008Z,-6.09
2022-11-20T04:04:41.968Z,-6.02
2022-11-20T04:08:44.148Z,-6.09
2022-11-20T04:12:46.294Z,-6.18
2022-11-20T04:16:48.437Z,-6.13
2022-11-20T04:20:50.352Z,-6.29
2022-11-20T04:24:52.004Z,-6.26
2022-11-20T04:28:54.475Z,-6.24
2022-11-20T04:32:56.084Z,-6.26
2022-11-20T04:36:57.930Z,-6.30
2022-11-20T04:41:05.731Z,-6.30
2022-11-20T04:45:07.909Z,-6.30
2022-11-20T04:49:09.708Z,-6.34
2022-11-20T04:53:11.859Z,-6.36
2022-11-20T04:57:14.757Z,-6.30
2022-11-20T05:01:22.935Z,-6.40
2022-11-20T05:05:24.942Z,-6.53
2022-11-20T05:09:26.867Z,-6.61
2022-11-20T05:13:28.661Z,-6.59
2022-11-20T05:17:30.704Z,-6.63
2022-11-20T05:21:33.409Z,-6.66
2022-11-20T05:25:35.324Z,-6.61
2022-11-20T05:29:37.106Z,-6.71
2022-11-20T05:33:41.926Z,-6.62
2022-11-20T05:37:43.531Z,-6.78
2022-11-20T05:41:45.472Z,-6.83
2022-11-20T05:45:56.602Z,-6.78
2022-11-20T05:49:58.510Z,-6.73
2022-11-20T05:54:00.201Z,-6.87
2022-11-20T05:58:02.156Z,-6.90
2022-11-20T06:02:03.791Z,-6.92
2022-11-20T06:06:07.356Z,-6.97
2022-11-20T06:10:09.558Z,-6.97
2022-11-20T06:14:11.446Z,-7.03
2022-11-20T06:18:13.083Z,-7.05
2022-11-20T06:22:15.014Z,-6.99
2022-11-20T06:26:19.066Z,-7.00
2022-11-20T06:30:21.083Z,-7.01
2022-11-20T06:34:22.686Z,-6.91
2022-11-20T06:38:25.863Z,-6.79
2022-11-20T06:42:27.491Z,-6.77
2022-11-20T06:46:29.373Z,-6.72
2022-11-20T06:50:31.020Z,-6.62
2022-11-20T06:54:33.123Z,-6.63
2022-11-20T06:58:36.281Z,-6.57
2022-11-20T07:02:38.300Z,-6.41
2022-11-20T07:06:40.058Z,-6.42
2022-11-20T07:10:42.149Z,-6.27
2022-11-20T07:14:43.770Z,-6.19
2022-11-20T07:18:50.178Z,-6.11
2022-11-20T07:22:59.242Z,-6.04
2022-11-20T07:27:01.478Z,-6.02
2022-11-20T07:31:04.136Z,-5.90
2022-11-20T07:35:06.512Z,-5.73
2022-11-20T07:39:08.154Z,-5.72
2022-11-20T07:43:10.143Z,-5.38
2022-11-20T07:47:11.761Z,-5.39
2022-11-20T07:51:14.496Z,-5.23
2022-11-20T07:55:16.444Z,-5.19
2022-11-20T07:59:18.574Z,-5.02
2022-11-20T08:03:24.642Z,-4.87
2022-11-20T08:07:27.450Z,-4.68
2022-11-20T08:11:47.912Z,-4.58
2022-11-20T08:15:51.789Z,-4.47
2022-11-20T08:19:54.058Z,-4.28
2022-11-20T08:23:55.916Z,-4.16
2022-11-20T08:28:08.994Z,-3.95
2022-11-20T08:32:17.968Z,-3.75
2022-11-20T08:36:20.586Z,-3.52
2022-11-20T08:40:22.466Z,-3.34
2022-11-20T08:44:24.896Z,-3.22
2022-11-20T08:48:26.804Z,-3.09
2022-11-20T08:52:28.393Z,-2.93
2022-11-20T08:56:30.674Z,-2.66
2022-11-20T09:00:33.496Z,-2.61
2022-11-20T09:04:36.241Z,-2.84
2022-11-20T09:08:38.441Z,-2.78
2022-11-20T09:12:40.312Z,-2.58
2022-11-20T09:16:42.160Z,-2.55
2022-11-20T09:20:44.342Z,-2.42
2022-11-20T09:24:46.062Z,-2.38
2022-11-20T09:28:47.978Z,-2.27
2022-11-20T09:32:49.917Z,-2.20
2022-11-20T09:36:51.839Z,-2.00
2022-11-20T09:41:04.118Z,-1.96
2022-11-20T09:45:15.316Z,-1.87
2022-11-20T09:49:36.477Z,-1.78
2022-11-20T09:54:02.976Z,-1.73
2022-11-20T09:58:30.540Z,-1.53
2022-11-20T10:02:38.514Z,-1.55
2022-11-20T10:07:37.019Z,-1.57
2022-11-20T10:11:51.172Z,-1.43
2022-11-20T10:16:17.779Z,-1.31
2022-11-20T10:20:41.800Z,-1.18
2022-11-20T10:24:57.561Z,-1.16
2022-11-20T10:29:09.100Z,-1.13
2022-11-20T10:33:20.662Z,-1.05
2022-11-20T10:37:25.848Z,-1.01
2022-11-20T10:41:35.871Z,-0.98
2022-11-20T10:45:54.105Z,-0.84
2022-11-20T10:49:59.177Z,-0.73
2022-11-20T10:54:26.919Z,-0.63
2022-11-20T10:59:03.452Z,-0.59
2022-11-20T11:03:28.375Z,-0.45
2022-11-20T11:07:36.191Z,-0.43
2022-11-20T11:11:39.272Z,-0.26
2022-11-20T11:15:42.172Z,-0.25
2022-11-20T11:19:43.911Z,-0.26
2022-11-20T11:23:45.782Z,-0.20
2022-11-20T11:27:49.087Z,-0.17
2022-11-20T11:31:51.076Z,-0.16
2022-11-20T11:35:57.939Z,0.02
2022-11-20T11:40:22.829Z,-0.02
2022-11-20T11:44:51.011Z,-0.05
2022-11-20T11:48:58.418Z,0.04
2022-11-20T11:53:12.115Z,0.08
2022-11-20T11:57:27.488Z,0.21
2022-11-20T12:01:37.822Z,0.15
2022-11-20T12:05:44.904Z,0.12
2022-11-20T12:09:52.835Z,0.20
2022-11-20T12:14:13.044Z,0.28
2022-11-20T12:18:20.735Z,0.25
2022-11-20T12:22:42.418Z,0.35
2022-11-20T12:27:06.202Z,0.25
2022-11-20T12:31:22.266Z,0.25
2022-11-20T12:35:42.923Z,0.20
2022-11-20T12:39:55.058Z,0.11
2022-11-20T12:44:49.583Z,0.20
2022-11-20T12:49:10.019Z,0.26
2022-11-20T12:53:42.006Z,0.40
2022-11-20T12:58:01.677Z,0.32
2022-11-20T13:02:24.326Z,0.36
2022-11-20T13:06:26.867Z,0.08
2022-11-20T13:10:47.568Z,0.17
2022-11-20T13:15:23.825Z,0.05
2022-11-20T13:19:26.543Z,-0.10
2022-11-20T13:23:28.915Z,0.01
2022-11-20T13:27:31.982Z,0.02
2022-11-20T13:31:36.123Z,0.01
2022-11-20T13:35:42.899Z,-0.03
2022-11-20T13:39:44.612Z,-0.21
2022-11-20T13:43:48.878Z,-0.26
2022-11-20T13:47:52.227Z,-0.32
2022-11-20T13:52:23.371Z,-0.35
2022-11-20T13:56:49.940Z,-0.51
2022-11-20T14:01:16.631Z,-0.66
2022-11-20T14:05:24.178Z,-0.69
2022-11-20T14:09:31.885Z,-0.92
2022-11-20T14:13:33.615Z,-1.03
2022-11-20T14:17:37.622Z,-1.04
2022-11-20T14:21:39.257Z,-1.10
2022-11-20T14:25:46.044Z,-1.11
2022-11-20T14:29:50.612Z,-1.22
2022-11-20T14:33:54.911Z,-1.32
2022-11-20T14:37:57.699Z,-1.41
2022-11-20T14:42:00.096Z,-1.44
2022-11-20T14:46:11.330Z,-1.44
2022-11-20T14:50:29.644Z,-1.51
2022-11-20T14:54:31.702Z,-1.58
2022-11-20T14:58:35.055Z,-1.61
2022-11-20T15:02:44.269Z,-1.59
2022-11-20T15:06:55.446Z,-1.60
2022-11-20T15:10:57.901Z,-1.61
2022-11-20T15:15:01.177Z,-1.66
2022-11-20T15:19:11.207Z,-1.72
2022-11-20T15:23:15.724Z,-1.75
2022-11-20T15:27:17.719Z,-1.73
2022-11-20T15:31:22.882Z,-1.69
2022-11-20T15:35:24.491Z,-1.77
2022-11-20T15:39:26.461Z,-1.78
2022-11-20T15:43:28.181Z,-1.89
2022-11-20T15:47:33.660Z,-1.87
2022-11-20T15:51:37.199Z,-1.98
2022-11-20T15:55:39.158Z,-2.06
2022-11-20T15:59:42.586Z,-2.11
2022-11-20T16:03:44.740Z,-2.17
2022-11-20T16:07:46.396Z,-2.06
2022-11-20T16:11:48.285Z,-1.98
2022-11-20T16:15:58.086Z,-1.97
2022-11-20T16:20:00.020Z,-2.02
2022-11-20T16:24:04.066Z,-2.07
2022-11-20T16:28:06.726Z,-2.05
2022-11-20T16:32:11.024Z,-2.00
2022-11-20T16:36:16.280Z,-1.99
2022-11-20T16:40:18.306Z,-1.96
2022-11-20T16:44:20.248Z,-2.00
2022-11-20T16:48:21.990Z,-2.00
2022-11-20T16:52:23.876Z,-2.02
2022-11-20T16:56:27.580Z,-2.01
2022-11-20T17:00:29.870Z,-1.97
2022-11-20T17:04:31.557Z,-2.05
2022-11-20T17:08:33.526Z,-2.02
2022-11-20T17:12:35.208Z,-2.01
2022-11-20T17:16:37.636Z,-2.02
2022-11-20T17:20:39.358Z,-2.07
2022-11-20T17:24:41.328Z,-2.05
2022-11-20T17:28:46.686Z,-2.15
2022-11-20T17:32:48.637Z,-2.14
2022-11-20T17:36:50.394Z,-2.27
2022-11-20T17:40:52.482Z,-2.22
2022-11-20T17:44:54.211Z,-2.20
2022-11-20T17:48:56.546Z,-2.25
2022-11-20T17:52:58.380Z,-2.39
2022-11-20T17:57:18.702Z,-2.44
2022-11-20T18:01:22.226Z,-2.66
2022-11-20T18:05:26.248Z,-2.61
2022-11-20T18:09:28.382Z,-2.64
2022-11-20T18:13:50.232Z,-2.84
2022-11-20T18:17:51.977Z,-2.85
2022-11-20T18:21:54.056Z,-2.97
2022-11-20T18:26:00.410Z,-3.03
2022-11-20T18:30:02.468Z,-3.19
2022-11-20T18:34:04.518Z,-3.19
2022-11-20T18:38:06.231Z,-3.24
2022-11-20T18:42:31.328Z,-3.25
2022-11-20T18:46:32.989Z,-3.29
2022-11-20T18:50:34.969Z,-3.36
2022-11-20T18:54:37.002Z,-3.45
2022-11-20T18:58:41.165Z,-3.54
2022-11-20T19:02:43.547Z,-3.56
2022-11-20T19:06:49.456Z,-3.54
2022-11-20T19:10:51.509Z,-3.46
2022-11-20T19:14:53.507Z,-3.38
2022-11-20T19:18:57.267Z,-3.29
2022-11-20T19:22:59.566Z,-3.29
2022-11-20T19:27:01.808Z,-3.22
2022-11-20T19:31:08.617Z,-3.12
2022-11-20T19:35:10.395Z,-2.97
2022-11-20T19:39:12.903Z,-2.96
2022-11-20T19:43:14.701Z,-2.83
2022-11-20T19:47:16.916Z,-2.84
2022-11-20T19:51:24.174Z,-2.75
2022-11-20T19:55:26.853Z,-2.76
2022-11-20T19:59:28.558Z,-2.86
2022-11-20T20:03:32.163Z,-2.86
2022-11-20T20:07:34.085Z,-2.79
2022-11-20T20:11:37.245Z,-2.77
2022-11-20T20:15:41.999Z,-2.78
2022-11-20T20:19:44.193Z,-2.77
2022-11-20T20:23:51.228Z,-2.55
2022-11-20T20:27:54.091Z,-2.47
2022-11-20T20:31:55.876Z,-2.40
2022-11-20T20:35:59.295Z,-2.49
2022-11-20T20:40:01.044Z,-2.37
2022-11-20T20:44:21.368Z,-2.36
2022-11-20T20:48:24.693Z,-2.41
2022-11-20T20:52:29.315Z,-2.38
2022-11-20T20:56:31.067Z,-2.43
2022-11-20T21:00:33.182Z,-2.17
2022-11-20T21:04:34.850Z,-2.24
2022-11-20T21:08:40.380Z,-2.23
2022-11-20T21:12:43.080Z,-2.24
2022-11-20T21:16:45.180Z,-2.25
2022-11-20T21:21:06.303Z,-2.20
2022-11-20T21:25:08.276Z,-2.27
2022-11-20T21:29:10.099Z,-2.08
2022-11-20T21:33:12.624Z,-2.28
2022-11-20T21:37:14.209Z,-2.15
2022-11-20T21:41:16.797Z,-2.12
2022-11-20T21:45:18.456Z,-2.12
2022-11-20T21:49:20.504Z,-2.19
2022-11-20T21:53:22.267Z,-2.15
2022-11-20T21:57:24.415Z,-2.09
2022-11-20T22:01:28.809Z,-2.06
2022-11-20T22:05:30.909Z,-2.12
2022-11-20T22:09:32.563Z,-2.34
2022-11-20T22:13:53.379Z,-2.21
2022-11-20T22:18:13.444Z,-2.22
2022-11-20T22:22:15.419Z,-2.18
2022-11-20T22:26:23.302Z,-2.28
2022-11-20T22:30:25.449Z,-2.37
2022-11-20T22:34:27.515Z,-2.41
2022-11-20T22:38:31.429Z,-2.50
2022-11-20T22:42:34.559Z,-2.55
2022-11-20T22:46:37.729Z,-2.67
2022-11-20T22:50:39.298Z,-2.83
2022-11-20T22:54:41.185Z,-2.97
2022-11-20T22:58:45.216Z,-3.02
2022-11-20T23:02:46.832Z,-3.18
2022-11-20T23:06:48.764Z,-3.25
2022-11-20T23:10:50.502Z,-3.35
2022-11-20T23:14:52.390Z,-3.37
2022-11-20T23:18:58.871Z,-3.45
2022-11-20T23:23:00.879Z,-3.51
2022-11-20T23:27:02.869Z,-3.53
2022-11-20T23:31:05.521Z,-3.54
2022-11-20T23:35:07.890Z,-3.56
2022-11-20T23:39:10.012Z,-3.43
2022-11-20T23:43:17.711Z,-3.38
2022-11-20T23:47:19.706Z,-3.39
2022-11-20T23:51:21.406Z,-3.47
2022-11-20T23:55:23.296Z,-3.50
2022-11-20T23:59:25.757Z,-3.43
